createdAt,value
2023-03-28T00:01:17.659Z,3.70
2023-03-28T00:03:46.576Z,4.30
2023-03-28T00:06:18.185Z,3.60
2023-03-28T00:08:47.500Z,4.30
2023-03-28T00:11:20.683Z,4.50
2023-03-28T00:13:53.080Z,4.00
2023-03-28T00:16:22.963Z,4.50
2023-03-28T00:18:51.875Z,5.00
2023-03-28T00:21:24.073Z,3.00
2023-03-28T00:23:55.474Z,3.20
2023-03-28T00:26:26.019Z,4.50
2023-03-28T00:28:55.433Z,3.70
2023-03-28T00:31:26.206Z,4.10
2023-03-28T00:33:55.663Z,4.50
2023-03-28T00:36:28.722Z,4.50
2023-03-28T00:38:58.681Z,4.50
2023-03-28T00:41:31.714Z,5.80
2023-03-28T00:44:02.055Z,5.30
2023-03-28T00:46:35.545Z,6.10
2023-03-28T00:49:11.715Z,6.00
2023-03-28T00:51:44.914Z,5.20
2023-03-28T00:54:19.224Z,5.40
2023-03-28T00:56:52.541Z,6.40
2023-03-28T00:59:26.871Z,5.80
2023-03-28T01:01:56.541Z,6.10
2023-03-28T01:04:32.742Z,7.30
2023-03-28T01:07:06.322Z,6.40
2023-03-28T01:09:38.035Z,6.50
2023-03-28T01:12:09.671Z,6.20
2023-03-28T01:14:39.463Z,6.10
2023-03-28T01:17:10.277Z,6.40
2023-03-28T01:19:58.322Z,5.90
2023-03-28T01:22:56.613Z,6.30
2023-03-28T01:26:14.409Z,5.50
2023-03-28T01:29:10.814Z,4.70
2023-03-28T01:31:59.687Z,6.90
2023-03-28T01:35:18.506Z,8.20
2023-03-28T01:37:54.022Z,7.00
2023-03-28T01:40:38.067Z,6.20
2023-03-28T01:43:24.514Z,7.40
2023-03-28T01:46:00.310Z,6.40
2023-03-28T01:48:48.769Z,5.20
2023-03-28T01:51:24.806Z,5.60
2023-03-28T01:54:01.208Z,5.80
2023-03-28T01:56:38.861Z,5.90
2023-03-28T01:59:17.628Z,4.30
2023-03-28T02:02:14.231Z,5.50
2023-03-28T02:04:48.386Z,5.40
2023-03-28T02:07:24.090Z,4.50
2023-03-28T02:10:31.002Z,5.00
2023-03-28T02:13:12.488Z,6.30
2023-03-28T02:15:50.104Z,4.70
2023-03-28T02:18:55.554Z,4.60
2023-03-28T02:21:52.202Z,5.30
2023-03-28T02:24:50.093Z,4.50
2023-03-28T02:27:54.030Z,4.80
2023-03-28T02:30:34.118Z,5.80
2023-03-28T02:33:05.212Z,6.00
2023-03-28T02:38:23.674Z,5.80
2023-03-28T02:41:07.294Z,6.80
2023-03-28T02:43:57.242Z,7.40
2023-03-28T02:46:34.545Z,6.40
2023-03-28T02:49:26.846Z,5.40
2023-03-28T02:52:08.777Z,6.10
2023-03-28T02:54:49.592Z,5.30
2023-03-28T02:57:45.972Z,4.90
2023-03-28T03:00:18.757Z,5.90
2023-03-28T03:02:50.878Z,5.70
2023-03-28T03:05:20.457Z,5.90
2023-03-28T03:07:50.933Z,5.50
2023-03-28T03:10:21.637Z,4.20
2023-03-28T03:12:51.000Z,4.80
2023-03-28T03:15:20.831Z,4.40
2023-03-28T03:17:59.014Z,5.90
2023-03-28T03:20:32.841Z,4.80
2023-03-28T03:23:02.313Z,5.20
2023-03-28T03:25:32.397Z,5.80
2023-03-28T03:28:18.566Z,6.60
2023-03-28T03:30:48.569Z,5.50
2023-03-28T03:33:23.920Z,5.90
2023-03-28T03:35:59.371Z,5.50
2023-03-28T03:38:30.442Z,5.50
2023-03-28T03:40:59.837Z,6.00
2023-03-28T03:43:29.418Z,5.40
2023-03-28T03:46:04.053Z,5.40
2023-03-28T03:48:33.582Z,5.20
2023-03-28T03:51:03.969Z,4.50
2023-03-28T03:53:35.047Z,4.20
2023-03-28T03:56:09.618Z,5.30
2023-03-28T03:59:00.420Z,4.60
2023-03-28T04:01:39.500Z,4.50
2023-03-28T04:04:29.202Z,4.70
2023-03-28T04:07:13.671Z,5.10
2023-03-28T04:09:47.087Z,4.80
2023-03-28T04:12:18.502Z,4.20
2023-03-28T04:14:57.761Z,4.10
2023-03-28T04:17:40.968Z,5.30
2023-03-28T04:20:16.716Z,5.10
2023-03-28T04:23:19.855Z,5.10
2023-03-28T04:25:49.837Z,4.70
2023-03-28T04:28:29.694Z,4.50
2023-03-28T04:31:06.727Z,4.90
2023-03-28T04:33:53.923Z,4.90
2023-03-28T04:36:25.248Z,4.60
2023-03-28T04:39:02.449Z,7.30
2023-03-28T04:42:09.493Z,9.40
2023-03-28T04:47:48.395Z,8.80
2023-03-28T04:50:19.705Z,7.00
2023-03-28T04:52:48.642Z,7.70
2023-03-28T04:55:19.481Z,4.60
2023-03-28T04:57:49.841Z,5.10
2023-03-28T05:00:23.191Z,5.40
2023-03-28T05:03:13.598Z,6.90
2023-03-28T05:05:53.587Z,8.90
2023-03-28T05:08:24.660Z,8.50
2023-03-28T05:10:54.720Z,5.30
2023-03-28T05:13:25.537Z,5.50
2023-03-28T05:16:04.111Z,5.10
2023-03-28T05:19:06.800Z,5.00
2023-03-28T05:21:54.280Z,4.90
2023-03-28T05:24:23.829Z,5.70
2023-03-28T05:26:53.539Z,5.00
2023-03-28T05:29:25.318Z,5.00
2023-03-28T05:31:54.431Z,4.50
2023-03-28T05:34:29.509Z,5.40
2023-03-28T05:36:58.878Z,5.20
2023-03-28T05:39:33.630Z,6.00
2023-03-28T05:42:08.653Z,6.20
2023-03-28T05:44:38.526Z,5.40
2023-03-28T05:47:27.179Z,5.50
2023-03-28T05:49:56.075Z,6.00
2023-03-28T05:52:26.189Z,7.90
2023-03-28T05:54:55.604Z,14.40
2023-03-28T05:57:26.763Z,9.10
2023-03-28T05:59:55.821Z,8.40
2023-03-28T06:02:25.144Z,8.10
2023-03-28T06:04:59.590Z,8.10
2023-03-28T06:07:41.282Z,11.50
2023-03-28T06:10:15.153Z,8.20
2023-03-28T06:12:50.699Z,11.70
2023-03-28T06:15:20.189Z,10.70
2023-03-28T06:17:49.363Z,7.20
2023-03-28T06:20:19.673Z,9.30
2023-03-28T06:22:49.166Z,11.60
2023-03-28T06:25:18.267Z,9.80
2023-03-28T06:27:46.869Z,4.60
2023-03-28T06:30:18.512Z,4.90
2023-03-28T06:32:50.612Z,9.10
2023-03-28T06:35:20.748Z,7.90
2023-03-28T06:37:49.894Z,6.60
2023-03-28T06:40:26.307Z,7.30
2023-03-28T06:42:55.064Z,8.10
2023-03-28T06:45:44.320Z,9.70
2023-03-28T06:48:17.839Z,10.10
2023-03-28T06:51:06.288Z,10.40
2023-03-28T06:53:35.573Z,9.40
2023-03-28T06:56:06.281Z,8.80
2023-03-28T06:58:34.995Z,8.90
2023-03-28T07:01:12.837Z,8.40
2023-03-28T07:04:03.956Z,7.80
2023-03-28T07:06:33.113Z,4.90
2023-03-28T07:09:03.401Z,5.50
2023-03-28T07:11:44.007Z,8.10
2023-03-28T07:14:12.996Z,9.00
2023-03-28T07:16:43.454Z,5.40
2023-03-28T07:19:12.559Z,5.00
2023-03-28T07:21:43.771Z,6.40
2023-03-28T07:24:12.766Z,7.50
2023-03-28T07:27:14.952Z,7.50
2023-03-28T07:29:46.998Z,7.40
2023-03-28T07:32:17.581Z,8.40
2023-03-28T07:34:48.108Z,8.30
2023-03-28T07:37:22.795Z,6.50
2023-03-28T07:39:57.700Z,5.40
2023-03-28T07:42:28.398Z,5.20
2023-03-28T07:44:57.439Z,7.00
2023-03-28T07:47:26.170Z,5.70
2023-03-28T07:49:55.193Z,6.50
2023-03-28T07:52:24.381Z,6.60
2023-03-28T07:54:53.452Z,5.30
2023-03-28T07:57:22.805Z,5.60
2023-03-28T08:00:22.518Z,5.30
2023-03-28T08:02:58.140Z,5.70
2023-03-28T08:05:27.253Z,5.70
2023-03-28T08:07:57.969Z,4.70
2023-03-28T08:10:26.966Z,5.00
2023-03-28T08:12:56.006Z,5.60
2023-03-28T08:15:24.894Z,6.10
2023-03-28T08:17:53.780Z,4.90
2023-03-28T08:20:23.444Z,4.30
2023-03-28T08:23:02.745Z,4.60
2023-03-28T08:25:37.785Z,2.90
2023-03-28T08:28:07.346Z,3.70
2023-03-28T08:30:36.735Z,2.90
2023-03-28T08:33:05.743Z,2.90
2023-03-28T08:35:35.149Z,2.80
2023-03-28T08:38:10.472Z,3.00
2023-03-28T08:40:45.342Z,2.80
2023-03-28T08:43:44.865Z,3.20
2023-03-28T08:46:16.553Z,3.80
2023-03-28T08:48:47.557Z,2.00
2023-03-28T08:51:22.737Z,3.60
2023-03-28T08:54:03.817Z,4.10
2023-03-28T08:56:35.976Z,3.80
2023-03-28T08:59:08.327Z,4.10
2023-03-28T09:01:39.380Z,2.80
2023-03-28T09:04:13.315Z,2.80
2023-03-28T09:06:48.725Z,3.40
2023-03-28T09:09:34.438Z,3.70
2023-03-28T09:12:40.341Z,2.90
2023-03-28T09:15:24.286Z,2.40
2023-03-28T09:18:23.035Z,1.20
2023-03-28T09:20:59.778Z,1.90
2023-03-28T09:23:56.307Z,1.80
2023-03-28T09:26:52.175Z,2.20
2023-03-28T09:29:25.004Z,2.10
2023-03-28T09:32:00.231Z,2.60
2023-03-28T09:34:37.560Z,2.80
2023-03-28T09:37:22.523Z,3.40
2023-03-28T09:39:54.175Z,3.40
2023-03-28T09:42:35.775Z,3.10
2023-03-28T09:45:36.870Z,3.50
2023-03-28T09:48:28.406Z,3.60
2023-03-28T09:50:58.724Z,3.10
2023-03-28T09:53:32.936Z,4.30
2023-03-28T09:56:05.951Z,4.70
2023-03-28T09:58:51.701Z,4.90
2023-03-28T10:01:41.998Z,4.40
2023-03-28T10:04:36.950Z,4.00
2023-03-28T10:07:33.112Z,3.40
2023-03-28T10:10:22.129Z,4.70
2023-03-28T10:12:58.902Z,2.70
2023-03-28T10:15:35.214Z,4.20
2023-03-28T10:18:21.030Z,3.00
2023-03-28T10:21:09.849Z,2.60
2023-03-28T10:23:43.814Z,3.20
2023-03-28T10:26:22.265Z,2.50
2023-03-28T10:28:53.917Z,2.20
2023-03-28T10:31:28.816Z,2.60
2023-03-28T10:34:26.125Z,2.00
2023-03-28T10:37:23.233Z,1.90
2023-03-28T10:40:01.809Z,1.70
2023-03-28T10:43:12.958Z,1.60
2023-03-28T10:46:20.552Z,1.30
2023-03-28T10:49:22.295Z,1.70
2023-03-28T10:51:58.493Z,1.20
2023-03-28T10:54:42.658Z,1.00
2023-03-28T10:57:30.792Z,2.00
2023-03-28T11:00:09.965Z,1.70
2023-03-28T11:03:16.367Z,1.60
2023-03-28T11:06:08.059Z,1.50
2023-03-28T11:08:47.986Z,1.30
2023-03-28T11:11:39.182Z,1.10
2023-03-28T11:14:18.212Z,0.90
2023-03-28T11:16:58.426Z,1.10
2023-03-28T11:20:02.037Z,0.70
2023-03-28T11:22:58.802Z,1.00
2023-03-28T11:25:42.963Z,1.00
2023-03-28T11:28:44.081Z,0.50
2023-03-28T11:31:24.712Z,0.90
2023-03-28T11:34:11.673Z,0.90
2023-03-28T11:36:48.250Z,0.70
2023-03-28T11:39:26.564Z,0.90
2023-03-28T11:41:59.533Z,0.80
2023-03-28T11:44:52.607Z,1.10
2023-03-28T11:47:27.084Z,1.10
2023-03-28T11:50:07.716Z,1.00
2023-03-28T11:52:59.391Z,1.20
2023-03-28T11:55:34.468Z,0.70
2023-03-28T11:58:12.375Z,0.90
2023-03-28T12:00:46.829Z,0.50
2023-03-28T12:03:22.996Z,1.40
2023-03-28T12:06:04.822Z,1.30
2023-03-28T12:08:39.377Z,1.20
2023-03-28T12:11:22.318Z,0.90
2023-03-28T12:14:11.416Z,1.00
2023-03-28T12:16:47.086Z,1.30
2023-03-28T12:19:21.702Z,1.40
2023-03-28T12:22:00.940Z,0.90
2023-03-28T12:24:47.995Z,0.90
2023-03-28T12:27:36.389Z,1.10
2023-03-28T12:30:20.251Z,0.70
2023-03-28T12:32:59.166Z,0.90
2023-03-28T12:35:40.034Z,1.00
2023-03-28T12:38:28.933Z,0.70
2023-03-28T12:41:08.728Z,0.70
2023-03-28T12:43:46.641Z,1.00
2023-03-28T12:46:24.925Z,0.90
2023-03-28T12:48:59.053Z,0.70
2023-03-28T12:51:38.300Z,1.00
2023-03-28T12:54:22.183Z,0.50
2023-03-28T12:57:04.762Z,0.90
2023-03-28T12:59:58.793Z,0.60
2023-03-28T13:02:46.868Z,0.60
2023-03-28T13:07:59.831Z,0.60
2023-03-28T13:10:36.488Z,0.50
2023-03-28T13:13:19.223Z,0.70
2023-03-28T13:16:01.751Z,0.40
2023-03-28T13:18:33.300Z,0.90
2023-03-28T13:21:06.628Z,0.90
2023-03-28T13:23:47.505Z,0.70
2023-03-28T13:26:17.276Z,0.90
2023-03-28T13:28:50.472Z,0.60
2023-03-28T13:31:25.166Z,0.40
2023-03-28T13:34:00.353Z,1.20
2023-03-28T13:36:49.925Z,1.40
2023-03-28T13:39:24.419Z,1.00
2023-03-28T13:42:00.274Z,0.90
2023-03-28T13:44:42.688Z,0.80
2023-03-28T13:47:21.344Z,1.40
2023-03-28T13:49:57.963Z,0.80
2023-03-28T13:52:27.915Z,0.90
2023-03-28T13:55:19.145Z,1.00
2023-03-28T13:57:49.966Z,0.70
2023-03-28T14:00:23.363Z,1.40
2023-03-28T14:03:00.747Z,0.90
2023-03-28T14:05:31.493Z,1.20
2023-03-28T14:08:23.187Z,0.90
2023-03-28T14:10:52.423Z,0.50
2023-03-28T14:13:24.911Z,1.10
2023-03-28T14:15:54.973Z,1.30
2023-03-28T14:18:36.015Z,1.10
2023-03-28T14:21:07.095Z,0.70
2023-03-28T14:23:38.649Z,0.50
2023-03-28T14:26:16.300Z,0.60
2023-03-28T14:28:47.111Z,0.50
2023-03-28T14:31:30.125Z,1.10
2023-03-28T14:34:17.739Z,1.20
2023-03-28T14:37:01.909Z,1.30
2023-03-28T14:39:33.900Z,0.90
2023-03-28T14:42:06.367Z,1.00
2023-03-28T14:44:41.001Z,1.10
2023-03-28T14:47:16.766Z,0.80
2023-03-28T14:49:46.414Z,0.80
2023-03-28T14:52:25.030Z,1.20
2023-03-28T14:54:54.878Z,1.20
2023-03-28T14:57:24.896Z,0.90
2023-03-28T14:59:57.043Z,1.20
2023-03-28T15:02:31.194Z,0.90
2023-03-28T15:05:02.558Z,1.00
2023-03-28T15:07:35.070Z,1.00
2023-03-28T15:10:11.248Z,1.50
2023-03-28T15:12:48.374Z,0.70
2023-03-28T15:15:24.339Z,0.80
2023-03-28T15:17:55.781Z,1.10
2023-03-28T15:20:30.908Z,1.40
2023-03-28T15:23:03.897Z,0.90
2023-03-28T15:25:34.374Z,0.80
2023-03-28T15:28:10.038Z,1.00
2023-03-28T15:30:44.546Z,0.90
2023-03-28T15:33:18.357Z,0.50
2023-03-28T15:35:48.744Z,1.40
2023-03-28T15:38:22.629Z,0.50
2023-03-28T15:41:07.502Z,1.00
2023-03-28T15:43:47.324Z,1.50
2023-03-28T15:46:19.096Z,0.60
2023-03-28T15:48:48.817Z,1.70
2023-03-28T15:51:23.577Z,1.30
2023-03-28T15:53:53.662Z,1.50
2023-03-28T15:56:26.569Z,1.20
2023-03-28T15:59:00.640Z,1.00
2023-03-28T16:01:38.890Z,1.40
2023-03-28T16:07:12.595Z,0.90
2023-03-28T16:09:44.558Z,0.50
2023-03-28T16:12:17.683Z,0.60
2023-03-28T16:14:48.882Z,1.10
2023-03-28T16:17:43.034Z,0.60
2023-03-28T16:20:20.810Z,1.50
2023-03-28T16:22:50.719Z,1.20
2023-03-28T16:25:19.598Z,1.10
2023-03-28T16:27:48.642Z,0.80
2023-03-28T16:30:21.180Z,2.10
2023-03-28T16:32:50.630Z,1.40
2023-03-28T16:35:19.711Z,2.00
2023-03-28T16:37:48.665Z,1.50
2023-03-28T16:40:18.627Z,1.40
2023-03-28T16:42:48.149Z,0.90
2023-03-28T16:45:20.273Z,1.60
2023-03-28T16:47:51.944Z,1.40
2023-03-28T16:50:21.096Z,2.50
2023-03-28T16:52:50.262Z,2.40
2023-03-28T16:55:19.430Z,2.10
2023-03-28T16:57:48.810Z,2.20
2023-03-28T17:00:20.504Z,1.30
2023-03-28T17:02:49.607Z,1.40
2023-03-28T17:05:18.920Z,1.40
2023-03-28T17:07:47.936Z,0.70
2023-03-28T17:10:17.958Z,0.80
2023-03-28T17:12:47.597Z,1.40
2023-03-28T17:15:17.392Z,0.80
2023-03-28T17:17:46.258Z,1.00
2023-03-28T17:20:21.978Z,0.90
2023-03-28T17:22:51.140Z,0.50
2023-03-28T17:25:20.406Z,0.70
2023-03-28T17:27:50.107Z,1.10
2023-03-28T17:30:19.886Z,1.00
2023-03-28T17:32:50.718Z,0.80
2023-03-28T17:35:21.099Z,0.60
2023-03-28T17:37:52.342Z,0.50
2023-03-28T17:40:21.308Z,0.80
2023-03-28T17:42:56.740Z,0.80
2023-03-28T17:45:26.113Z,1.20
2023-03-28T17:47:55.903Z,1.00
2023-03-28T17:50:25.173Z,0.80
2023-03-28T17:52:54.387Z,1.60
2023-03-28T17:55:23.842Z,1.30
2023-03-28T17:57:53.132Z,1.50
2023-03-28T18:00:23.384Z,1.30
2023-03-28T18:02:52.820Z,1.10
2023-03-28T18:05:53.269Z,1.80
2023-03-28T18:08:22.972Z,1.20
2023-03-28T18:10:51.723Z,0.60
2023-03-28T18:13:20.904Z,1.50
2023-03-28T18:15:50.286Z,1.30
2023-03-28T18:18:19.134Z,1.00
2023-03-28T18:20:49.123Z,1.00
2023-03-28T18:23:20.571Z,1.60
2023-03-28T18:25:51.688Z,1.50
2023-03-28T18:28:21.729Z,1.20
2023-03-28T18:30:50.952Z,1.30
2023-03-28T18:33:21.432Z,1.40
2023-03-28T18:35:50.183Z,2.20
2023-03-28T18:38:19.564Z,1.40
2023-03-28T18:40:52.853Z,2.50
2023-03-28T18:43:21.756Z,4.90
2023-03-28T18:45:54.700Z,6.30
2023-03-28T18:48:24.126Z,8.90
2023-03-28T18:50:54.351Z,14.50
2023-03-28T18:53:24.719Z,15.60
2023-03-28T18:55:54.163Z,17.00
2023-03-28T18:58:25.485Z,10.70
2023-03-28T19:00:58.561Z,7.00
2023-03-28T19:03:31.229Z,5.30
2023-03-28T19:06:02.313Z,3.90
2023-03-28T19:08:33.267Z,2.50
2023-03-28T19:11:08.140Z,2.90
2023-03-28T19:13:37.206Z,2.10
2023-03-28T19:16:08.542Z,2.20
2023-03-28T19:18:41.868Z,1.40
2023-03-28T19:21:12.823Z,1.20
2023-03-28T19:23:43.326Z,2.10
2023-03-28T19:26:14.445Z,1.80
2023-03-28T19:28:46.458Z,1.50
2023-03-28T19:31:17.363Z,1.40
2023-03-28T19:33:48.765Z,5.80
2023-03-28T19:36:18.860Z,5.90
2023-03-28T19:38:47.977Z,8.70
2023-03-28T19:41:19.979Z,15.60
2023-03-28T19:43:50.902Z,15.20
2023-03-28T19:46:24.889Z,13.60
2023-03-28T19:48:57.672Z,18.70
2023-03-28T19:51:27.828Z,8.80
2023-03-28T19:53:58.068Z,7.60
2023-03-28T19:56:27.535Z,3.80
2023-03-28T19:58:56.409Z,4.40
2023-03-28T20:01:25.553Z,2.70
2023-03-28T20:03:54.697Z,2.00
2023-03-28T20:06:24.697Z,2.10
2023-03-28T20:08:53.547Z,2.70
2023-03-28T20:11:22.605Z,2.80
2023-03-28T20:13:51.772Z,2.70
2023-03-28T20:16:20.833Z,3.20
2023-03-28T20:18:50.186Z,2.40
2023-03-28T20:21:18.818Z,2.60
2023-03-28T20:23:47.812Z,2.40
2023-03-28T20:26:19.397Z,2.10
2023-03-28T20:28:52.831Z,3.00
2023-03-28T20:31:22.568Z,1.70
2023-03-28T20:33:53.075Z,2.20
2023-03-28T20:36:22.069Z,1.40
2023-03-28T20:38:50.964Z,1.20
2023-03-28T20:41:19.748Z,2.00
2023-03-28T20:43:49.747Z,1.20
2023-03-28T20:46:19.373Z,1.30
2023-03-28T20:48:52.907Z,1.60
2023-03-28T20:51:23.281Z,0.90
2023-03-28T20:53:55.137Z,1.80
2023-03-28T20:56:24.482Z,1.80
2023-03-28T20:58:54.284Z,2.60
2023-03-28T21:01:27.650Z,2.10
2023-03-28T21:04:01.813Z,1.70
2023-03-28T21:06:34.361Z,1.90
2023-03-28T21:09:06.751Z,1.50
2023-03-28T21:11:37.589Z,1.90
2023-03-28T21:14:08.332Z,0.80
2023-03-28T21:16:39.147Z,1.90
2023-03-28T21:19:13.485Z,2.00
2023-03-28T21:21:42.358Z,1.50
2023-03-28T21:24:17.240Z,1.30
2023-03-28T21:26:46.134Z,1.40
2023-03-28T21:29:15.960Z,1.70
2023-03-28T21:31:44.671Z,1.30
2023-03-28T21:34:16.521Z,1.40
2023-03-28T21:36:45.215Z,1.50
2023-03-28T21:39:20.104Z,1.40
2023-03-28T21:41:48.805Z,1.80
2023-03-28T21:44:23.945Z,0.80
2023-03-28T21:46:52.768Z,0.80
2023-03-28T21:49:30.143Z,1.00
2023-03-28T21:51:58.954Z,0.90
2023-03-28T21:54:27.800Z,1.10
2023-03-28T21:56:57.912Z,1.10
2023-03-28T21:59:27.832Z,1.20
2023-03-28T22:01:56.551Z,0.80
2023-03-28T22:04:27.384Z,1.20
2023-03-28T22:06:56.799Z,2.10
2023-03-28T22:09:27.564Z,1.40
2023-03-28T22:11:56.263Z,1.80
2023-03-28T22:14:26.000Z,1.50
2023-03-28T22:16:54.633Z,1.40
2023-03-28T22:19:29.520Z,2.50
2023-03-28T22:22:00.369Z,2.70
2023-03-28T22:24:29.784Z,2.40
2023-03-28T22:26:58.544Z,2.60
2023-03-28T22:29:27.182Z,1.70
2023-03-28T22:31:56.300Z,2.10
2023-03-28T22:34:28.444Z,2.10
2023-03-28T22:36:57.640Z,2.20
2023-03-28T22:39:26.580Z,2.00
2023-03-28T22:41:55.369Z,1.90
2023-03-28T22:44:26.737Z,2.10
2023-03-28T22:47:01.417Z,2.60
2023-03-28T22:49:33.568Z,2.50
2023-03-28T22:52:06.351Z,1.90
2023-03-28T22:54:37.490Z,1.90
2023-03-28T22:57:10.094Z,2.30
2023-03-28T23:00:11.762Z,2.00
2023-03-28T23:02:41.265Z,2.30
2023-03-28T23:05:12.172Z,2.10
2023-03-28T23:07:44.142Z,1.70
2023-03-28T23:10:16.212Z,2.30
2023-03-28T23:12:46.586Z,1.90
2023-03-28T23:15:17.507Z,2.10
2023-03-28T23:17:47.002Z,2.30
2023-03-28T23:20:19.057Z,1.70
2023-03-28T23:22:48.887Z,1.80
2023-03-28T23:25:19.267Z,1.60
2023-03-28T23:27:48.025Z,1.90
2023-03-28T23:30:17.654Z,2.30
2023-03-28T23:32:46.802Z,1.50
2023-03-28T23:35:16.614Z,1.50
2023-03-28T23:37:45.300Z,1.90
2023-03-28T23:40:20.257Z,2.50
2023-03-28T23:42:49.645Z,1.60
2023-03-28T23:45:19.829Z,2.90
2023-03-28T23:47:48.495Z,3.20
2023-03-28T23:50:17.943Z,3.80
2023-03-28T23:52:46.828Z,3.40
2023-03-28T23:55:17.512Z,3.90
2023-03-28T23:57:46.761Z,4.40
